Aviation Digital Data Service (ADDS)

Output produced by METARs form (2055 UTC 29 May 2017)
found at http://www.aviationweather.gov/adds/metars/
 
GGOV 291900Z 27007KT CAVOK 32/22 Q1012 NOSIG
TAF GGOV 291700Z 2918/3018 24009KT 9999 FEW014 
     PROB30 
     TEMPO 3004/3008 BKN014